aviador You're here:

KDVP Decoded Metar

SLAYTON in MN, USA
Report Time2018-04-21 07:42:00
UTC Time2018-04-21 07:48:47
Flight Rules vfr VFR
WindCalm
Visibility9999 m
Phenomena:N/A
Clouds:Overcast 100 Hf
Expected CloudBase > 800 ft AGL from Temp-Dew spread
Ceiling10,000 ft
Temp01°C (ISA -11)
Dew Point-1°C (87% RH)
AAT-1.1°C
QNH1029 hPa
Density Alt-144 ft
Elevation1,624 ft
Report Wrong Elevation
Raw Report
KDVP 210742Z AUTO 00000KT 10SM OVC100 01/M01 A3038 RMK AO2
T00101006=

Extra information for KDVP:More info

Metar Taf Metar & Taf Last 4 Metars F.Rules Stats Wind Profile Meteogram Temp Stats Airport Information Weather charts Add Link Nearby VenuesMetar ALERT Operation Metar Decoded Social comments

AIRNAV info for KDVP